createdAt,value
2022-10-02T06:37:55.134Z,15.89
2022-10-02T06:40:35.684Z,16.19
2022-10-02T06:42:50.865Z,16.47
2022-10-02T06:45:01.501Z,16.65
2022-10-02T06:47:19.708Z,16.79
2022-10-02T06:49:51.703Z,16.93
2022-10-02T06:52:10.246Z,16.98
2022-10-02T06:54:43.003Z,17.12
2022-10-02T06:56:59.025Z,17.19
2022-10-02T06:59:17.464Z,17.23
2022-10-02T07:01:31.580Z,17.27
2022-10-02T07:03:55.716Z,17.30
2022-10-02T07:06:15.077Z,17.32
2022-10-02T07:08:30.249Z,17.37
2022-10-02T07:10:43.643Z,17.40
2022-10-02T07:13:21.080Z,17.43
2022-10-02T07:15:50.617Z,17.45
2022-10-02T07:18:07.143Z,17.51
2022-10-02T07:20:26.921Z,17.55
2022-10-02T07:22:45.598Z,17.55
2022-10-02T07:25:10.266Z,17.58
2022-10-02T07:27:20.279Z,17.58
2022-10-02T07:29:37.662Z,17.61
2022-10-02T07:31:52.495Z,17.61
2022-10-02T07:34:08.009Z,17.61
2022-10-02T07:36:14.384Z,17.62
2022-10-02T07:38:46.162Z,17.63
2022-10-02T07:41:00.196Z,17.65
2022-10-02T07:43:17.403Z,17.65
2022-10-02T07:45:28.713Z,17.67
2022-10-02T07:47:56.253Z,17.68
2022-10-02T07:50:09.383Z,17.70
2022-10-02T07:52:25.643Z,17.72
2022-10-02T07:54:59.977Z,17.73
2022-10-02T07:57:11.878Z,17.75
2022-10-02T07:59:18.909Z,17.76
2022-10-02T08:01:25.964Z,17.73
2022-10-02T08:03:33.345Z,17.75
2022-10-02T08:05:41.585Z,17.75
2022-10-02T08:07:50.781Z,17.80
2022-10-02T08:09:55.537Z,17.80
2022-10-02T08:12:04.340Z,17.83
2022-10-02T08:14:12.053Z,17.84
2022-10-02T08:16:20.806Z,17.85
2022-10-02T08:18:34.558Z,17.85
2022-10-02T08:20:43.025Z,17.85
2022-10-02T08:22:50.895Z,17.85
2022-10-02T08:24:58.279Z,17.87
2022-10-02T08:27:08.350Z,17.88
2022-10-02T08:29:17.962Z,17.88
2022-10-02T08:31:24.011Z,17.87
2022-10-02T08:33:26.926Z,17.87
2022-10-02T08:35:41.212Z,17.86
2022-10-02T08:38:04.984Z,17.89
2022-10-02T08:40:53.593Z,17.92
2022-10-02T08:43:39.013Z,17.93
2022-10-02T08:46:23.530Z,17.94
2022-10-02T08:48:49.583Z,17.95
2022-10-02T08:51:30.218Z,17.97
2022-10-02T08:54:17.151Z,17.99
2022-10-02T08:56:39.630Z,18.01
2022-10-02T08:59:05.388Z,18.03
2022-10-02T09:01:21.854Z,18.06
2022-10-02T09:04:12.975Z,18.07
2022-10-02T09:06:53.915Z,18.07
2022-10-02T09:09:35.291Z,18.12
2022-10-02T09:12:21.532Z,18.14
2022-10-02T09:14:48.313Z,18.15
2022-10-02T09:17:10.522Z,18.15
2022-10-02T09:19:40.682Z,18.16
2022-10-02T09:21:54.731Z,18.21
2022-10-02T09:24:35.560Z,18.24
2022-10-02T09:26:58.285Z,18.25
2022-10-02T09:29:21.922Z,18.26
2022-10-02T09:31:43.158Z,18.30
2022-10-02T09:34:15.807Z,18.32
2022-10-02T09:37:02.110Z,18.38
2022-10-02T09:39:55.935Z,18.42
2022-10-02T09:42:36.331Z,18.45
2022-10-02T09:45:18.221Z,18.48
2022-10-02T09:48:01.466Z,18.53
2022-10-02T09:50:36.830Z,18.57
2022-10-02T09:53:11.557Z,18.61
2022-10-02T09:55:36.709Z,18.65
2022-10-02T09:58:14.812Z,18.69
2022-10-02T10:00:26.476Z,18.73
2022-10-02T10:02:49.591Z,18.79
2022-10-02T10:05:10.740Z,18.84
2022-10-02T10:07:59.111Z,18.88
2022-10-02T10:10:34.383Z,18.90
2022-10-02T10:13:12.312Z,18.87
2022-10-02T10:15:40.483Z,18.81
2022-10-02T10:18:12.100Z,18.79
2022-10-02T10:21:07.212Z,18.84
2022-10-02T10:23:38.189Z,18.87
2022-10-02T10:26:16.589Z,18.89
2022-10-02T10:29:03.966Z,18.86
2022-10-02T10:31:54.237Z,18.84
2022-10-02T10:34:29.085Z,18.82
2022-10-02T10:37:08.761Z,18.84
2022-10-02T10:39:39.521Z,18.90
2022-10-02T10:42:20.928Z,18.93
2022-10-02T10:45:00.295Z,18.96
2022-10-02T10:47:43.632Z,18.97
2022-10-02T10:50:20.618Z,18.98
2022-10-02T10:52:42.676Z,19.01
2022-10-02T10:54:55.817Z,19.05
2022-10-02T10:57:04.306Z,19.01
2022-10-02T10:59:43.235Z,19.05
2022-10-02T11:02:06.564Z,19.10
2022-10-02T11:04:39.237Z,19.12
2022-10-02T11:07:02.706Z,19.13
2022-10-02T11:09:34.319Z,19.19
2022-10-02T11:11:44.855Z,19.23
2022-10-02T11:14:05.579Z,19.25
2022-10-02T11:16:44.804Z,19.27
2022-10-02T11:19:10.912Z,19.26
2022-10-02T11:21:38.381Z,19.26
2022-10-02T11:24:08.862Z,19.27
2022-10-02T11:26:32.318Z,19.28
2022-10-02T11:28:56.193Z,19.23
2022-10-02T11:31:16.657Z,19.27
2022-10-02T11:33:34.967Z,19.27
2022-10-02T11:36:16.392Z,19.30
2022-10-02T11:38:43.466Z,19.31
2022-10-02T11:40:59.923Z,19.33
2022-10-02T11:43:27.535Z,19.36
2022-10-02T11:46:00.191Z,19.38
2022-10-02T11:48:41.282Z,19.37
2022-10-02T11:51:01.934Z,19.39
2022-10-02T11:53:32.057Z,19.41
2022-10-02T11:55:50.414Z,19.39
2022-10-02T11:58:06.020Z,19.42
2022-10-02T12:00:34.369Z,19.43
2022-10-02T12:02:42.909Z,19.44
2022-10-02T12:05:04.430Z,19.47
2022-10-02T12:07:21.023Z,19.47
2022-10-02T12:09:36.912Z,19.49
2022-10-02T12:11:48.351Z,19.50
2022-10-02T12:14:04.488Z,19.54
2022-10-02T12:16:18.143Z,19.58
2022-10-02T12:18:42.816Z,19.60
2022-10-02T12:21:16.184Z,19.60
2022-10-02T12:23:47.221Z,19.61
2022-10-02T12:26:16.384Z,19.63
2022-10-02T12:28:27.433Z,19.67
2022-10-02T12:30:40.699Z,19.68
2022-10-02T12:33:27.213Z,19.70
2022-10-02T12:35:51.793Z,19.78
2022-10-02T12:38:06.267Z,19.86
2022-10-02T12:40:21.273Z,19.87
2022-10-02T12:43:00.281Z,19.92
2022-10-02T12:45:28.188Z,19.92
2022-10-02T12:47:50.643Z,19.92
2022-10-02T12:50:11.208Z,19.95
2022-10-02T12:52:40.676Z,19.99
2022-10-02T12:55:13.461Z,20.00
2022-10-02T12:57:53.082Z,20.00
2022-10-02T13:00:04.490Z,20.02
2022-10-02T13:03:00.485Z,20.01
2022-10-02T13:05:47.972Z,20.04
2022-10-02T13:08:19.350Z,20.03
2022-10-02T13:10:24.688Z,20.03
2022-10-02T13:12:54.109Z,20.06
2022-10-02T13:15:17.651Z,20.09
2022-10-02T13:17:32.432Z,20.10
2022-10-02T13:19:47.890Z,20.11
2022-10-02T13:21:59.470Z,20.13
2022-10-02T13:24:17.348Z,20.19
2022-10-02T13:26:34.156Z,20.22
2022-10-02T13:28:50.200Z,20.25
2022-10-02T13:31:04.288Z,20.27
2022-10-02T13:33:20.344Z,20.29
2022-10-02T13:36:04.665Z,20.30
2022-10-02T13:38:23.238Z,20.30
2022-10-02T13:40:31.031Z,20.32
2022-10-02T13:42:48.011Z,20.34
2022-10-02T13:45:00.366Z,20.36
2022-10-02T13:47:28.434Z,20.39
2022-10-02T13:49:46.763Z,20.44
2022-10-02T13:51:57.575Z,20.48
2022-10-02T13:54:23.620Z,20.47
2022-10-02T13:56:43.881Z,20.47
2022-10-02T13:59:14.788Z,20.47
2022-10-02T14:01:30.046Z,20.45
2022-10-02T14:03:50.008Z,20.48
2022-10-02T14:06:01.221Z,20.48
2022-10-02T14:08:44.296Z,20.48
2022-10-02T14:11:01.555Z,20.47
2022-10-02T14:13:21.048Z,20.45
2022-10-02T14:15:38.200Z,20.45
2022-10-02T14:17:53.779Z,20.45
2022-10-02T14:20:15.739Z,20.44
2022-10-02T14:22:34.839Z,20.46
2022-10-02T14:25:04.376Z,20.46
2022-10-02T14:27:19.192Z,20.47
2022-10-02T14:29:37.125Z,20.48
2022-10-02T14:32:05.865Z,20.50
2022-10-02T14:34:26.177Z,20.53
2022-10-02T14:36:38.552Z,20.53
2022-10-02T14:39:01.117Z,20.54
2022-10-02T14:41:18.889Z,20.55
2022-10-02T14:43:42.317Z,20.52
2022-10-02T14:46:08.691Z,20.52
2022-10-02T14:48:27.049Z,20.53
2022-10-02T14:50:44.838Z,20.52
2022-10-02T14:53:04.571Z,20.50
2022-10-02T14:55:28.156Z,20.52
2022-10-02T14:57:53.046Z,20.50
2022-10-02T15:00:24.632Z,20.52
2022-10-02T15:02:50.290Z,20.51
2022-10-02T15:05:07.003Z,20.52
2022-10-02T15:07:13.182Z,20.52
2022-10-02T15:09:21.268Z,20.54
2022-10-02T15:11:47.354Z,20.56
2022-10-02T15:13:56.815Z,20.59
2022-10-02T15:16:26.848Z,20.58
2022-10-02T15:18:40.186Z,20.55
2022-10-02T15:20:59.434Z,20.53
2022-10-02T15:23:04.331Z,20.50
2022-10-02T15:25:18.299Z,20.55
2022-10-02T15:27:24.917Z,20.59
2022-10-02T15:29:40.962Z,20.60
2022-10-02T15:32:02.376Z,20.62
2022-10-02T15:34:19.814Z,20.63
2022-10-02T15:36:50.423Z,20.63
2022-10-02T15:39:19.686Z,20.66
2022-10-02T15:41:48.129Z,20.67
2022-10-02T15:44:03.193Z,20.68
2022-10-02T15:46:15.956Z,20.70
2022-10-02T15:49:06.124Z,20.70
2022-10-02T15:51:21.568Z,20.70
2022-10-02T15:53:37.425Z,20.72
2022-10-02T15:55:44.638Z,20.73
2022-10-02T15:58:08.521Z,20.72
2022-10-02T16:00:15.116Z,20.70
2022-10-02T16:02:33.043Z,20.69
2022-10-02T16:04:47.068Z,20.68
2022-10-02T16:07:31.959Z,20.69
2022-10-02T16:09:50.545Z,20.68
2022-10-02T16:12:11.366Z,20.66
2022-10-02T16:14:19.753Z,20.62
2022-10-02T16:16:56.145Z,20.59
2022-10-02T16:19:08.338Z,20.57
2022-10-02T16:21:27.200Z,20.54
2022-10-02T16:23:57.598Z,20.53
2022-10-02T16:26:15.504Z,20.50
2022-10-02T16:28:34.303Z,20.47
2022-10-02T16:30:59.199Z,20.45
2022-10-02T16:33:20.986Z,20.43
2022-10-02T16:36:03.561Z,20.42
2022-10-02T16:38:17.936Z,20.41
2022-10-02T16:40:28.909Z,20.40
2022-10-02T16:42:45.255Z,20.38
2022-10-02T16:45:02.810Z,20.36
2022-10-02T16:47:14.894Z,20.33
2022-10-02T16:49:25.780Z,20.31
2022-10-02T16:51:45.010Z,20.29
2022-10-02T16:53:54.496Z,20.29
2022-10-02T16:56:07.072Z,20.29
2022-10-02T16:58:19.328Z,20.26
2022-10-02T17:00:26.720Z,20.24
2022-10-02T17:02:43.406Z,20.22
2022-10-02T17:04:59.266Z,20.19
2022-10-02T17:07:07.047Z,20.19
2022-10-02T17:09:18.581Z,20.18
2022-10-02T17:11:26.255Z,20.16
2022-10-02T17:13:35.738Z,20.16
2022-10-02T17:15:46.238Z,20.13
2022-10-02T17:18:12.373Z,20.10
2022-10-02T17:20:20.450Z,20.11
2022-10-02T17:22:34.234Z,20.09
2022-10-02T17:24:43.594Z,20.08
2022-10-02T17:26:52.619Z,20.05
2022-10-02T17:29:02.819Z,20.03
2022-10-02T17:31:36.629Z,20.03
2022-10-02T17:33:48.036Z,20.00
2022-10-02T17:35:58.004Z,19.99
2022-10-02T17:38:25.583Z,19.97
2022-10-02T17:40:37.051Z,19.98
2022-10-02T17:42:48.836Z,19.96
2022-10-02T17:45:00.133Z,19.94
2022-10-02T17:47:36.004Z,19.92
2022-10-02T17:49:51.727Z,19.92
2022-10-02T17:52:23.835Z,19.91
2022-10-02T17:55:00.130Z,19.89
2022-10-02T17:57:17.416Z,19.88
2022-10-02T18:00:04.493Z,19.88
2022-10-02T18:02:22.132Z,19.85
2022-10-02T18:04:33.224Z,19.85
2022-10-02T18:06:47.154Z,19.84
2022-10-02T18:09:23.020Z,19.82
2022-10-02T18:11:42.496Z,19.82
2022-10-02T18:13:59.882Z,19.82
2022-10-02T18:16:22.177Z,19.81
2022-10-02T18:18:33.601Z,19.81
2022-10-02T18:20:44.483Z,19.81
2022-10-02T18:23:08.511Z,19.81
2022-10-02T18:25:24.241Z,19.82
2022-10-02T18:28:04.286Z,19.78
2022-10-02T18:30:15.962Z,19.80
2022-10-02T18:32:44.654Z,19.78
2022-10-02T18:35:14.889Z,19.77
2022-10-02T18:37:39.266Z,19.76
2022-10-02T18:40:01.357Z,19.74
2022-10-02T18:42:29.833Z,19.72
2022-10-02T18:44:49.844Z,19.72
2022-10-02T18:47:04.265Z,19.71
2022-10-02T18:49:29.301Z,19.67
2022-10-02T18:51:53.572Z,19.68
2022-10-02T18:54:10.614Z,19.67
2022-10-02T18:56:40.122Z,19.65
2022-10-02T18:58:58.439Z,19.64
2022-10-02T19:01:10.739Z,19.64
2022-10-02T19:03:25.421Z,19.64
2022-10-02T19:05:32.948Z,19.63
2022-10-02T19:07:40.907Z,19.63
2022-10-02T19:09:44.276Z,19.62
2022-10-02T19:11:56.190Z,19.61
2022-10-02T19:14:03.192Z,19.59
2022-10-02T19:16:19.293Z,19.60
2022-10-02T19:18:24.543Z,19.60
2022-10-02T19:20:37.231Z,19.59
2022-10-02T19:22:41.898Z,19.62
2022-10-02T19:24:47.143Z,19.62
2022-10-02T19:26:57.037Z,19.62
2022-10-02T19:29:03.860Z,19.63
2022-10-02T19:31:11.262Z,19.65
2022-10-02T19:33:22.756Z,19.57
2022-10-02T19:35:29.396Z,19.66
2022-10-02T19:37:33.232Z,19.66
2022-10-02T19:39:39.948Z,19.67
2022-10-02T19:41:44.759Z,19.67
2022-10-02T19:43:56.426Z,19.66
2022-10-02T19:46:04.025Z,19.67
2022-10-02T19:48:10.231Z,19.66
2022-10-02T19:50:21.896Z,19.66
2022-10-02T19:52:35.871Z,19.67
2022-10-02T19:54:40.765Z,19.66
2022-10-02T19:56:45.514Z,19.66
2022-10-02T19:58:51.087Z,19.66
2022-10-02T20:00:56.238Z,19.66
2022-10-02T20:03:01.630Z,19.65
2022-10-02T20:05:08.168Z,19.65
2022-10-02T20:07:17.611Z,19.66
2022-10-02T20:09:25.904Z,19.65
2022-10-02T20:11:36.248Z,19.65
2022-10-02T20:13:45.513Z,19.65
2022-10-02T20:16:12.298Z,19.63
2022-10-02T20:18:16.197Z,19.63
2022-10-02T20:20:20.609Z,19.61
2022-10-02T20:22:31.684Z,19.61
2022-10-02T20:24:46.235Z,19.61
2022-10-02T20:26:52.788Z,19.61
2022-10-02T20:29:00.202Z,19.59
2022-10-02T20:31:07.987Z,19.56
2022-10-02T20:33:19.131Z,19.54
2022-10-02T20:35:29.185Z,19.53
2022-10-02T20:37:34.798Z,19.52
2022-10-02T20:39:42.893Z,19.53
2022-10-02T20:41:55.684Z,19.50
2022-10-02T20:44:06.127Z,19.49
2022-10-02T20:46:30.509Z,19.46
2022-10-02T20:49:08.077Z,19.45
2022-10-02T20:51:16.854Z,19.44
2022-10-02T20:53:57.510Z,19.43
2022-10-02T20:56:07.658Z,19.42
